Weather reports worldwide

Advertisment
Chamonix, France (7469): temperature & dewpoint: 12.09.2019 06:00:00 - 18.09.2019 06:00:00 (CEST)Chamonix, France (7469): wind speed & gusts: 12.09.2019 06:00:00 - 18.09.2019 06:00:00 (CEST)Chamonix, France (7469): wind direction: 12.09.2019 06:00:00 - 18.09.2019 06:00:00 (CEST)Chamonix, France (7469): precipitation: 12.09.2019 06:00:00 - 18.09.2019 06:00:00 (CEST)
Date & Time tt [°C] td [°C] ff [km/h] ff [kn] fx [km/h] fx [kn] dd rr [mm]
18.09.2019 06:00:00 - - - - - - - -
18.09.2019 05:00:00 8,9 8,4 0 0 4 2 N 0,0
18.09.2019 04:00:00 8,8 8,3 0 0 4 2 N 0,0
18.09.2019 03:00:00 8,8 8,2 0 0 4 2 N 0,0
18.09.2019 02:00:00 8,9 8,3 0 0 2 1 N -
18.09.2019 01:00:00 9,5 8,7 0 0 4 2 N 0,0
18.09.2019 00:00:00 10,2 9,3 0 0 2 1 N 0,0
17.09.2019 23:00:00 11,0 9,9 0 0 4 2 N 0,0
17.09.2019 22:00:00 12,1 10,7 0 0 4 2 N 0,0
17.09.2019 21:00:00 13,6 11,8 0 0 4 2 N 0,0
17.09.2019 20:00:00 15,9 12,6 0 0 5 3 N -
17.09.2019 19:00:00 18,6 13,0 2 1 8 4 NNE 0,0
17.09.2019 18:00:00 20,8 12,0 4 2 8 4 SSW 0,0
17.09.2019 17:00:00 23,2 11,6 2 1 15 8 SW 0,0
17.09.2019 16:00:00 24,2 9,7 5 3 22 12 S 0,0
17.09.2019 15:00:00 26,3 10,8 8 4 22 12 S 0,0
17.09.2019 14:00:00 26,1 11,4 5 3 18 10 SSE -
17.09.2019 13:00:00 24,5 11,4 5 3 15 8 S 0,0
17.09.2019 12:00:00 18,4 12,4 2 1 5 3 ESE 0,0
17.09.2019 11:00:00 13,8 13,5 0 0 4 2 N 0,0
17.09.2019 10:00:00 9,7 9,4 0 0 2 1 N 0,0
17.09.2019 09:00:00 8,8 8,5 0 0 4 2 N 0,0
17.09.2019 08:00:00 8,1 7,7 0 0 4 2 N -
17.09.2019 07:00:00 8,1 7,7 0 0 4 2 N 0,0
17.09.2019 06:00:00 8,4 8,0 0 0 0 0 N 0,0
17.09.2019 05:00:00 8,8 8,3 0 0 5 3 N 0,0
17.09.2019 04:00:00 9,2 8,6 0 0 4 2 N 0,2
17.09.2019 03:00:00 9,6 9,0 0 0 0 0 N 0,0
17.09.2019 02:00:00 10,1 9,5 0 0 4 2 N -
17.09.2019 01:00:00 10,6 9,8 0 0 2 1 N 0,0
17.09.2019 00:00:00 11,3 10,4 0 0 4 2 N 0,0
16.09.2019 23:00:00 12,1 11,0 0 0 2 1 N 0,0
16.09.2019 22:00:00 13,3 11,7 0 0 4 2 N 0,0
16.09.2019 21:00:00 15,0 12,7 0 0 4 2 N 0,0
16.09.2019 20:00:00 17,3 13,4 0 0 21 11 N -
16.09.2019 19:00:00 20,9 12,6 5 3 15 8 SW 0,0
16.09.2019 18:00:00 23,3 11,4 4 2 16 9 WSW 0,0
16.09.2019 17:00:00 25,8 12,6 4 2 18 10 S 0,0
16.09.2019 16:00:00 26,0 10,2 5 3 21 11 SSW 0,0
16.09.2019 15:00:00 26,9 10,6 8 4 24 13 S 0,0
16.09.2019 14:00:00 26,1 13,2 8 4 18 10 SSE -
16.09.2019 13:00:00 23,5 13,7 4 2 8 4 ESE 0,0
16.09.2019 12:00:00 19,3 11,6 0 0 5 3 N 0,0
16.09.2019 11:00:00 15,2 14,1 2 1 8 4 ESE 0,0
16.09.2019 10:00:00 12,2 11,9 0 0 5 3 N 0,0
16.09.2019 09:00:00 11,2 10,9 0 0 8 4 N 0,0
16.09.2019 08:00:00 9,8 9,5 2 1 5 3 NNE -
16.09.2019 07:00:00 9,7 9,4 2 1 5 3 E 0,0
16.09.2019 06:00:00 9,7 9,2 0 0 4 2 N 0,0
16.09.2019 05:00:00 9,5 9,0 0 0 2 1 N 0,0
16.09.2019 04:00:00 9,9 9,4 0 0 2 1 N 0,0
16.09.2019 03:00:00 10,4 9,9 0 0 2 1 N 0,0
16.09.2019 02:00:00 10,8 10,2 0 0 4 2 N -
16.09.2019 01:00:00 11,3 10,7 0 0 4 2 N 0,0
16.09.2019 00:00:00 11,9 11,1 0 0 4 2 N 0,0
15.09.2019 23:00:00 12,6 11,7 0 0 4 2 N 0,0
15.09.2019 22:00:00 13,5 12,4 0 0 4 2 N 0,0
15.09.2019 21:00:00 14,7 13,1 0 0 4 2 N 0,0
15.09.2019 20:00:00 16,3 13,4 0 0 4 2 N -
15.09.2019 19:00:00 19,6 14,2 0 0 16 9 N 0,0
15.09.2019 18:00:00 25,4 12,9 5 3 18 10 SW 0,0
15.09.2019 17:00:00 26,2 12,3 5 3 24 13 SW 0,0
15.09.2019 16:00:00 26,1 12,9 8 4 24 13 WSW 0,0
15.09.2019 15:00:00 25,7 13,2 9 5 22 12 WSW 0,0
15.09.2019 14:00:00 25,7 13,2 5 3 21 11 SW -
15.09.2019 13:00:00 24,1 14,2 4 2 8 4 SW 0,0
15.09.2019 12:00:00 20,0 12,0 2 1 4 2 W 0,0
15.09.2019 11:00:00 14,8 14,5 0 0 4 2 N 0,0
15.09.2019 10:00:00 11,9 11,6 0 0 2 1 N 0,0
15.09.2019 09:00:00 10,5 10,2 0 0 2 1 N 0,0
15.09.2019 08:00:00 9,8 9,5 0 0 2 1 N -
15.09.2019 07:00:00 9,5 9,2 0 0 4 2 N 0,0
15.09.2019 06:00:00 9,0 8,5 0 0 4 2 N 0,0
15.09.2019 05:00:00 9,4 8,9 0 0 2 1 N 0,0
15.09.2019 04:00:00 9,8 9,3 0 0 2 1 N 0,0
15.09.2019 03:00:00 10,1 9,6 0 0 2 1 N 0,0
15.09.2019 02:00:00 10,5 9,9 0 0 8 4 N -
15.09.2019 01:00:00 11,0 10,4 0 0 5 3 N 0,0
15.09.2019 00:00:00 11,8 11,0 0 0 4 2 N 0,0
14.09.2019 23:00:00 12,5 11,7 0 0 4 2 N 0,0
14.09.2019 22:00:00 13,3 12,2 0 0 4 2 N 0,0
14.09.2019 21:00:00 14,7 13,2 0 0 4 2 N 0,0
14.09.2019 20:00:00 16,4 14,1 0 0 8 4 N -
14.09.2019 19:00:00 19,3 14,3 0 0 16 9 N 0,0
14.09.2019 18:00:00 22,9 14,2 11 6 18 10 WSW 0,0
14.09.2019 17:00:00 24,7 13,9 9 5 21 11 WSW 0,0
14.09.2019 16:00:00 25,0 13,2 8 4 16 9 SW 0,0
14.09.2019 15:00:00 24,9 13,1 5 3 16 9 SW 0,0
14.09.2019 14:00:00 24,5 11,8 4 2 13 7 SSW -
14.09.2019 13:00:00 23,3 10,4 4 2 8 4 S 0,0
14.09.2019 12:00:00 17,5 12,4 0 0 5 3 N 0,0
14.09.2019 11:00:00 12,6 12,3 0 0 5 3 N 0,0
14.09.2019 10:00:00 8,6 8,3 0 0 4 2 N 0,0
14.09.2019 09:00:00 7,5 7,2 0 0 4 2 N 0,0
14.09.2019 08:00:00 7,1 6,7 0 0 2 1 N -
14.09.2019 07:00:00 7,4 7,0 0 0 4 2 N 0,2
14.09.2019 06:00:00 7,7 7,3 0 0 8 4 N 0,0
14.09.2019 05:00:00 8,1 7,7 0 0 4 2 N 0,0
14.09.2019 04:00:00 8,7 8,2 2 1 4 2 NNW 0,0
14.09.2019 03:00:00 9,4 8,9 0 0 4 2 N 0,0
14.09.2019 02:00:00 10,2 9,7 2 1 5 3 E -
14.09.2019 01:00:00 10,7 10,1 2 1 5 3 NNE 0,0
14.09.2019 00:00:00 11,0 10,4 0 0 5 3 N 0,0
13.09.2019 23:00:00 11,7 10,9 0 0 4 2 N 0,0
13.09.2019 22:00:00 12,5 11,6 0 0 4 2 N 0,0
13.09.2019 21:00:00 13,6 12,3 0 0 5 3 N 0,0
13.09.2019 20:00:00 14,9 12,9 0 0 4 2 N -
13.09.2019 19:00:00 17,2 13,3 0 0 9 5 N 0,0
13.09.2019 18:00:00 23,9 13,1 8 4 16 9 WSW 0,0
13.09.2019 17:00:00 24,6 12,2 8 4 16 9 WSW 0,0
13.09.2019 16:00:00 24,8 11,4 8 4 21 11 SW 0,0
13.09.2019 15:00:00 24,7 10,9 8 4 16 9 SW 0,0
13.09.2019 14:00:00 24,4 11,4 5 3 16 9 SSW -
13.09.2019 13:00:00 22,5 10,6 2 1 9 5 SE 0,0
13.09.2019 12:00:00 17,4 10,5 4 2 8 4 S 0,0
13.09.2019 11:00:00 11,9 11,7 0 0 4 2 N 0,0
13.09.2019 10:00:00 7,1 6,8 0 0 4 2 N 0,0
13.09.2019 09:00:00 6,3 6,0 0 0 4 2 N 0,0
13.09.2019 08:00:00 5,9 5,6 0 0 2 1 N -
13.09.2019 07:00:00 5,9 5,5 0 0 4 2 N 0,0
13.09.2019 06:00:00 6,3 5,9 0 0 5 3 N 0,0
13.09.2019 05:00:00 6,7 6,3 0 0 2 1 N 0,0
13.09.2019 04:00:00 7,1 6,7 0 0 5 3 N 0,0
13.09.2019 03:00:00 7,6 7,2 0 0 2 1 N 0,0
13.09.2019 02:00:00 8,1 7,5 0 0 0 0 N -
13.09.2019 01:00:00 8,7 8,1 0 0 2 1 N 0,0
13.09.2019 00:00:00 9,4 8,6 0 0 4 2 N 0,0
12.09.2019 23:00:00 10,2 9,4 0 0 4 2 N 0,0
12.09.2019 22:00:00 11,2 10,3 0 0 4 2 N 0,0
12.09.2019 21:00:00 12,4 11,1 0 0 4 2 N 0,0
12.09.2019 20:00:00 13,8 12,0 0 0 4 2 N -
12.09.2019 19:00:00 16,2 12,6 0 0 11 6 N 0,0
12.09.2019 18:00:00 23,0 12,6 4 2 15 8 S 0,0
12.09.2019 17:00:00 23,3 11,4 5 3 16 9 SW 0,0
12.09.2019 16:00:00 22,9 11,0 8 4 18 10 SW 0,0
12.09.2019 15:00:00 22,5 10,6 5 3 16 9 SW 0,0
12.09.2019 14:00:00 21,6 9,5 8 4 15 8 SW -
12.09.2019 13:00:00 20,7 9,9 4 2 9 5 SW 0,0
12.09.2019 12:00:00 15,0 10,4 2 1 5 3 ESE 0,0
12.09.2019 11:00:00 10,7 10,5 0 0 5 3 N 0,0
12.09.2019 10:00:00 6,0 5,7 0 0 4 2 N 0,0
12.09.2019 09:00:00 5,1 4,8 0 0 4 2 N 0,0
12.09.2019 08:00:00 4,8 4,5 0 0 4 2 N -
12.09.2019 07:00:00 4,7 4,3 0 0 4 2 N 0,0
12.09.2019 06:00:00 5,1 4,7 2 1 5 3 NE 0,0

tt = temperature
td = dewpoint
ff = wind speed
fx = gusts
dd = wind direction
rr = precipitation

Next stations